Time;durP1;ratioP1;P1;durP2;ratioP2;P2;SDS_P1;SDS_P2;PMS_P1;PMS_P2;Temp;Humidity;BMP_temperature;BMP_pressure;BME280_temperature;BME280_humidity;BME280_pressure;Samples;Min_cycle;Max_cycle;Signal;HPM_P1;HPM_P2
2023/10/07 00:00:48;;;;;;;12.98;8.10;;;;;;;;;;5070123;28;20032;-66
2023/10/07 00:03:15;;;;;;;13.10;7.82;;;;;;;;;;5070411;28;20457;-66
2023/10/07 00:05:42;;;;;;;12.93;7.47;;;;;;;;;;5070331;28;20021;-66
2023/10/07 00:08:19;;;;;;;12.70;7.38;;;;;;;;;;5052252;28;20445;-66
2023/10/07 00:10:49;;;;;;;12.80;7.50;;;;;;;;;;5070484;28;20020;-65
2023/10/07 00:13:19;;;;;;;12.38;7.20;;;;;;;;;;5070124;28;20024;-69
2023/10/07 00:15:47;;;;;;;12.95;7.65;;;;;;;;;;5070150;28;20020;-66
2023/10/07 00:18:13;;;;;;;12.65;7.50;;;;;;;;;;5070161;28;20025;-67
2023/10/07 00:20:55;;;;;;;12.82;7.70;;;;;;;;;;5070056;28;20021;-67
2023/10/07 00:23:22;;;;;;;12.90;7.65;;;;;;;;;;5070320;28;20039;-67
2023/10/07 00:25:52;;;;;;;12.93;7.60;;;;;;;;;;5070192;28;20025;-65
2023/10/07 00:28:24;;;;;;;13.50;8.35;;;;;;;;;;5053121;28;20115;-65
2023/10/07 00:30:50;;;;;;;13.02;7.70;;;;;;;;;;5073387;28;20036;-65
2023/10/07 00:33:22;;;;;;;13.15;7.85;;;;;;;;;;5073643;28;20078;-67
2023/10/07 00:35:50;;;;;;;12.82;7.60;;;;;;;;;;5073562;28;20028;-65
2023/10/07 00:38:16;;;;;;;12.60;7.38;;;;;;;;;;5073543;28;20444;-67
2023/10/07 00:40:48;;;;;;;14.00;8.98;;;;;;;;;;5073050;28;20017;-66
2023/10/07 00:43:26;;;;;;;13.32;8.15;;;;;;;;;;5073229;28;20027;-66
2023/10/07 00:46:11;;;;;;;12.80;7.50;;;;;;;;;;5073648;28;20366;-66
2023/10/07 00:48:56;;;;;;;20.00;9.70;;;;;;;;;;5073516;28;20031;-66
2023/10/07 00:51:35;;;;;;;12.90;8.05;;;;;;;;;;5073052;28;20024;-67
2023/10/07 00:54:30;;;;;;;12.70;7.65;;;;;;;;;;5073420;28;20020;-65
2023/10/07 00:59:32;;;;;;;15.95;7.90;;;;;;;;;;5073102;28;20024;-67
2023/10/07 01:01:58;;;;;;;12.75;7.43;;;;;;;;;;5055326;28;20028;-66
2023/10/07 01:04:24;;;;;;;12.48;7.30;;;;;;;;;;5054822;28;20500;-65
2023/10/07 01:07:00;;;;;;;12.48;7.22;;;;;;;;;;5072911;28;20154;-66
2023/10/07 01:09:28;;;;;;;12.38;7.20;;;;;;;;;;5073225;28;20020;-67
2023/10/07 01:11:57;;;;;;;12.77;7.45;;;;;;;;;;5072662;28;20675;-66
2023/10/07 01:14:27;;;;;;;12.70;7.35;;;;;;;;;;5072581;28;20033;-67
2023/10/07 01:16:53;;;;;;;24.42;8.85;;;;;;;;;;5072903;28;20035;-67
2023/10/07 01:19:27;;;;;;;12.95;7.55;;;;;;;;;;5054666;28;20428;-66
2023/10/07 01:21:55;;;;;;;12.70;7.88;;;;;;;;;;5072414;28;20035;-67
2023/10/07 01:24:43;;;;;;;12.83;7.90;;;;;;;;;;5072337;28;20032;-67
2023/10/07 01:29:49;;;;;;;12.88;7.50;;;;;;;;;;5072282;28;20483;-67
2023/10/07 01:32:16;;;;;;;12.30;7.35;;;;;;;;;;5072211;28;20020;-68
2023/10/07 01:34:47;;;;;;;12.55;7.35;;;;;;;;;;5071948;28;20017;-66
2023/10/07 01:37:15;;;;;;;12.60;7.35;;;;;;;;;;5072252;28;20025;-67
2023/10/07 01:39:42;;;;;;;19.75;7.50;;;;;;;;;;5052835;28;20036;-67
2023/10/07 01:42:20;;;;;;;12.30;7.40;;;;;;;;;;5072074;28;20021;-68
2023/10/07 01:44:48;;;;;;;12.68;7.63;;;;;;;;;;5072069;28;20021;-67
2023/10/07 01:47:24;;;;;;;12.13;7.10;;;;;;;;;;5054315;28;20074;-65
2023/10/07 01:49:53;;;;;;;11.95;6.90;;;;;;;;;;5072107;28;20115;-67
2023/10/07 01:52:21;;;;;;;12.15;7.10;;;;;;;;;;5072198;28;20494;-67
2023/10/07 01:54:48;;;;;;;12.00;7.10;;;;;;;;;;5071997;28;20103;-67
2023/10/07 01:57:15;;;;;;;12.55;7.95;;;;;;;;;;5071989;28;20379;-68
2023/10/07 01:59:41;;;;;;;12.40;7.38;;;;;;;;;;5071752;28;20068;-67
2023/10/07 02:02:09;;;;;;;18.83;8.95;;;;;;;;;;5071854;28;20028;-65
2023/10/07 02:04:36;;;;;;;12.40;7.30;;;;;;;;;;5053882;28;20545;-67
2023/10/07 02:07:02;;;;;;;12.50;7.63;;;;;;;;;;5071840;28;20020;-67
2023/10/07 02:09:35;;;;;;;12.25;7.25;;;;;;;;;;5071880;28;20615;-68
2023/10/07 02:12:03;;;;;;;12.45;7.20;;;;;;;;;;5071561;28;20097;-66
2023/10/07 02:14:29;;;;;;;12.23;7.40;;;;;;;;;;5071601;28;20347;-66
2023/10/07 02:16:56;;;;;;;12.27;7.20;;;;;;;;;;5071719;28;20028;-66
2023/10/07 02:19:29;;;;;;;12.25;7.15;;;;;;;;;;5053804;28;20032;-66
2023/10/07 02:22:07;;;;;;;12.70;7.85;;;;;;;;;;5071342;28;20028;-66
2023/10/07 02:24:34;;;;;;;12.45;7.63;;;;;;;;;;5071846;28;20056;-67
2023/10/07 02:27:00;;;;;;;12.50;7.40;;;;;;;;;;5071588;28;20032;-67
2023/10/07 02:29:29;;;;;;;13.32;8.35;;;;;;;;;;5071572;28;20052;-67
2023/10/07 02:32:07;;;;;;;12.32;7.20;;;;;;;;;;5071246;28;20048;-67
2023/10/07 02:34:33;;;;;;;12.50;7.57;;;;;;;;;;5053555;28;20021;-66
2023/10/07 02:37:12;;;;;;;12.40;7.43;;;;;;;;;;5071266;28;20027;-66
2023/10/07 02:39:45;;;;;;;12.95;8.07;;;;;;;;;;5071187;28;20027;-67
2023/10/07 02:42:13;;;;;;;12.38;7.30;;;;;;;;;;5071070;28;20055;-67
2023/10/07 02:44:41;;;;;;;12.07;7.03;;;;;;;;;;5070709;28;20097;-66
2023/10/07 02:47:11;;;;;;;14.00;9.20;;;;;;;;;;5070886;28;20100;-67
2023/10/07 02:49:46;;;;;;;12.65;7.30;;;;;;;;;;5070765;28;20478;-67
2023/10/07 02:52:16;;;;;;;12.75;7.63;;;;;;;;;;5070139;28;20055;-67
2023/10/07 02:54:42;;;;;;;11.82;6.93;;;;;;;;;;5070501;28;20021;-66
2023/10/07 02:57:09;;;;;;;11.95;6.97;;;;;;;;;;5070752;28;20453;-66
2023/10/07 02:59:36;;;;;;;12.18;7.00;;;;;;;;;;5070432;28;20074;-67
2023/10/07 03:02:25;;;;;;;12.57;7.65;;;;;;;;;;5070433;28;20608;-67
2023/10/07 03:07:34;;;;;;;12.00;7.10;;;;;;;;;;5070751;28;20025;-66
2023/10/07 03:10:29;;;;;;;13.65;8.30;;;;;;;;;;5070264;28;20069;-67
2023/10/07 03:12:58;;;;;;;12.23;7.20;;;;;;;;;;5070505;28;20116;-66
2023/10/07 03:17:59;;;;;;;12.02;7.13;;;;;;;;;;5070651;28;20021;-66
2023/10/07 03:20:31;;;;;;;11.75;7.00;;;;;;;;;;5069888;28;20540;-67
2023/10/07 03:23:17;;;;;;;12.20;7.20;;;;;;;;;;5070486;28;20435;-68
2023/10/07 03:28:20;;;;;;;12.27;7.30;;;;;;;;;;5070330;28;20032;-66
2023/10/07 03:30:55;;;;;;;12.20;7.30;;;;;;;;;;5069770;28;20020;-66
2023/10/07 03:33:44;;;;;;;12.30;7.53;;;;;;;;;;5070034;28;20036;-67
2023/10/07 03:39:42;;;;;;;12.00;7.20;;;;;;;;;;5069983;28;20036;-67
2023/10/07 03:41:48;;;;;;;11.93;7.07;;;;;;;;;;5055773;28;20051;-66
2023/10/07 03:44:18;;;;;;;12.65;7.55;;;;;;;;;;5052085;28;20025;-67
2023/10/07 03:46:47;;;;;;;11.77;6.90;;;;;;;;;;5051824;28;20082;-67
2023/10/07 03:49:15;;;;;;;12.52;7.47;;;;;;;;;;5069761;28;20046;-65
2023/10/07 03:51:41;;;;;;;13.07;8.20;;;;;;;;;;5069552;28;20017;-67
2023/10/07 03:54:11;;;;;;;13.90;8.52;;;;;;;;;;5081453;28;20077;-70
2023/10/07 03:56:37;;;;;;;14.43;9.10;;;;;;;;;;5090048;28;20413;-67
2023/10/07 03:59:05;;;;;;;14.00;7.70;;;;;;;;;;5090110;28;20071;-66
2023/10/07 04:01:32;;;;;;;13.25;8.70;;;;;;;;;;5089772;28;20081;-67
2023/10/07 04:04:01;;;;;;;12.25;7.53;;;;;;;;;;5093028;28;20401;-67
2023/10/07 04:06:34;;;;;;;11.90;6.97;;;;;;;;;;5094401;28;20481;-67
2023/10/07 04:09:11;;;;;;;11.98;6.97;;;;;;;;;;5094214;28;20031;-66
2023/10/07 04:11:38;;;;;;;12.30;7.20;;;;;;;;;;5075701;28;20024;-67
2023/10/07 04:14:27;;;;;;;13.57;7.93;;;;;;;;;;5094326;28;20027;-65
2023/10/07 04:17:14;;;;;;;11.70;7.00;;;;;;;;;;5093948;28;20047;-66
2023/10/07 04:19:52;;;;;;;12.15;7.10;;;;;;;;;;5093280;28;20116;-67
2023/10/07 04:22:18;;;;;;;13.32;8.48;;;;;;;;;;5093584;28;20482;-69
2023/10/07 04:24:44;;;;;;;13.23;8.70;;;;;;;;;;5093942;28;20024;-67
2023/10/07 04:27:18;;;;;;;12.18;7.22;;;;;;;;;;5075816;28;20032;-67
2023/10/07 04:29:45;;;;;;;14.20;7.97;;;;;;;;;;5093714;28;20115;-68
2023/10/07 04:32:12;;;;;;;12.95;7.32;;;;;;;;;;5093885;28;20024;-66
2023/10/07 04:35:00;;;;;;;12.55;7.47;;;;;;;;;;5094285;28;20023;-69
2023/10/07 04:37:47;;;;;;;12.40;7.38;;;;;;;;;;5093767;28;20039;-68
2023/10/07 04:42:38;;;;;;;15.13;8.57;;;;;;;;;;5093953;28;20068;-66
2023/10/07 04:45:35;;;;;;;13.95;8.60;;;;;;;;;;5075565;28;20452;-67
2023/10/07 04:48:23;;;;;;;14.68;8.18;;;;;;;;;;5094277;28;20024;-68
2023/10/07 04:51:03;;;;;;;12.68;7.93;;;;;;;;;;5092756;28;20032;-68
2023/10/07 04:53:38;;;;;;;13.93;8.43;;;;;;;;;;5075431;28;20024;-67
2023/10/07 04:56:07;;;;;;;11.00;6.45;;;;;;;;;;5093894;28;20077;-67
2023/10/07 04:58:34;;;;;;;12.00;7.25;;;;;;;;;;5075365;28;20016;-66
2023/10/07 05:01:22;;;;;;;12.77;8.02;;;;;;;;;;5074543;28;20640;-68
2023/10/07 05:03:51;;;;;;;12.27;7.53;;;;;;;;;;5093161;28;20112;-66
2023/10/07 05:06:18;;;;;;;12.77;7.78;;;;;;;;;;5093156;28;20024;-67
2023/10/07 05:08:45;;;;;;;11.70;7.13;;;;;;;;;;5093038;28;20028;-67
2023/10/07 05:11:17;;;;;;;12.68;7.40;;;;;;;;;;5092553;28;20023;-67
2023/10/07 05:13:44;;;;;;;12.98;8.27;;;;;;;;;;5092998;28;20363;-67
2023/10/07 05:16:11;;;;;;;12.75;8.38;;;;;;;;;;5093562;28;20032;-67
2023/10/07 05:18:38;;;;;;;11.60;7.10;;;;;;;;;;5092917;28;20105;-67
2023/10/07 05:21:04;;;;;;;13.43;7.82;;;;;;;;;;5092477;28;20024;-67
2023/10/07 05:23:30;;;;;;;14.63;8.95;;;;;;;;;;5092940;28;20039;-67
2023/10/07 05:26:03;;;;;;;12.57;7.57;;;;;;;;;;5092742;28;20040;-66
2023/10/07 05:28:30;;;;;;;12.80;8.85;;;;;;;;;;5092972;28;20388;-67
2023/10/07 05:30:57;;;;;;;12.53;8.13;;;;;;;;;;5088356;28;20097;-67
2023/10/07 05:33:27;;;;;;;12.60;8.27;;;;;;;;;;5080653;28;20359;-67
2023/10/07 05:35:59;;;;;;;12.48;7.68;;;;;;;;;;5081806;28;20020;-68
2023/10/07 05:38:25;;;;;;;12.98;7.95;;;;;;;;;;5054574;28;20050;-67
2023/10/07 05:40:54;;;;;;;15.80;8.73;;;;;;;;;;5088174;28;20520;-66
2023/10/07 05:43:21;;;;;;;14.60;9.45;;;;;;;;;;5092546;28;20031;-67
2023/10/07 05:45:48;;;;;;;15.50;9.45;;;;;;;;;;5092541;28;20020;-65
2023/10/07 05:48:14;;;;;;;11.60;7.18;;;;;;;;;;5067136;28;20059;-67
2023/10/07 05:50:40;;;;;;;13.27;7.45;;;;;;;;;;5071550;28;20048;-67
2023/10/07 05:53:06;;;;;;;12.75;8.70;;;;;;;;;;5071872;28;20086;-68
2023/10/07 05:55:33;;;;;;;13.70;8.40;;;;;;;;;;5071658;28;20510;-70
2023/10/07 05:58:01;;;;;;;13.75;8.95;;;;;;;;;;5054078;28;20055;-67
2023/10/07 06:00:31;;;;;;;18.40;9.40;;;;;;;;;;5071352;28;20024;-65
2023/10/07 06:02:57;;;;;;;13.02;7.32;;;;;;;;;;5071718;28;20029;-67
2023/10/07 06:05:27;;;;;;;11.70;7.00;;;;;;;;;;5077863;28;20027;-66
2023/10/07 06:07:54;;;;;;;13.95;8.52;;;;;;;;;;5091911;28;20032;-67
2023/10/07 06:10:24;;;;;;;12.80;7.80;;;;;;;;;;5072906;28;20060;-66
2023/10/07 06:12:50;;;;;;;14.93;8.52;;;;;;;;;;5091900;28;20024;-66
2023/10/07 06:15:17;;;;;;;12.07;7.20;;;;;;;;;;5091781;28;20024;-67
2023/10/07 06:17:44;;;;;;;10.55;6.10;;;;;;;;;;5073963;28;20020;-67
2023/10/07 06:20:26;;;;;;;13.80;7.43;;;;;;;;;;5073031;28;20094;-66
2023/10/07 06:22:55;;;;;;;11.23;7.13;;;;;;;;;;5091973;28;20550;-67
2023/10/07 06:25:30;;;;;;;12.52;7.63;;;;;;;;;;5091072;28;20047;-67
2023/10/07 06:27:59;;;;;;;12.48;7.50;;;;;;;;;;5091829;28;20503;-67
2023/10/07 06:30:26;;;;;;;10.95;6.40;;;;;;;;;;5091484;28;20093;-68
2023/10/07 06:32:55;;;;;;;12.40;7.43;;;;;;;;;;5073415;28;20358;-67
2023/10/07 06:35:24;;;;;;;11.55;7.05;;;;;;;;;;5091418;28;20051;-66
2023/10/07 06:37:51;;;;;;;10.60;6.20;;;;;;;;;;5091538;28;20424;-67
2023/10/07 06:40:26;;;;;;;15.88;10.50;;;;;;;;;;5072501;28;20359;-66
2023/10/07 06:42:55;;;;;;;13.70;7.70;;;;;;;;;;5091956;28;20027;-65
2023/10/07 06:45:21;;;;;;;12.75;7.35;;;;;;;;;;5073162;28;20152;-68
2023/10/07 06:47:48;;;;;;;14.02;8.38;;;;;;;;;;5091527;28;20032;-66
2023/10/07 06:50:27;;;;;;;12.32;7.95;;;;;;;;;;5072508;28;20086;-66
2023/10/07 06:52:55;;;;;;;12.45;8.27;;;;;;;;;;5091394;28;20024;-66
2023/10/07 06:55:21;;;;;;;13.40;7.32;;;;;;;;;;5091172;28;20073;-66
2023/10/07 06:57:47;;;;;;;11.02;6.63;;;;;;;;;;5091103;28;20028;-66
2023/10/07 07:00:37;;;;;;;13.77;7.85;;;;;;;;;;5072137;28;20042;-67
2023/10/07 07:03:09;;;;;;;12.60;7.88;;;;;;;;;;5090787;28;20092;-67
2023/10/07 07:05:35;;;;;;;13.35;8.70;;;;;;;;;;5090845;28;20104;-67
2023/10/07 07:08:04;;;;;;;14.63;9.35;;;;;;;;;;5070584;28;20056;-65
2023/10/07 07:10:31;;;;;;;12.90;7.60;;;;;;;;;;5070316;28;20501;-66
2023/10/07 07:13:23;;;;;;;12.43;7.32;;;;;;;;;;5070716;28;20178;-67
2023/10/07 07:15:45;;;;;;;16.13;8.68;;;;;;;;;;5069812;28;20029;-68
2023/10/07 07:20:49;;;;;;;11.57;6.80;;;;;;;;;;5069416;28;20058;-66
2023/10/07 07:23:21;;;;;;;12.90;7.88;;;;;;;;;;5052502;28;20071;-66
2023/10/07 07:26:03;;;;;;;14.70;8.23;;;;;;;;;;5070522;28;20048;-66
2023/10/07 07:28:32;;;;;;;12.65;8.10;;;;;;;;;;5051955;28;20040;-52
2023/10/07 07:30:58;;;;;;;14.80;9.25;;;;;;;;;;5051159;28;20013;-49
2023/10/07 07:33:37;;;;;;;12.02;6.90;;;;;;;;;;5077483;28;20107;-51
2023/10/07 07:36:18;;;;;;;15.23;8.82;;;;;;;;;;5090097;28;20107;-55
2023/10/07 07:38:45;;;;;;;13.02;7.65;;;;;;;;;;5071974;28;20110;-51
2023/10/07 07:41:26;;;;;;;11.98;7.43;;;;;;;;;;5089215;28;20024;-57
2023/10/07 07:43:53;;;;;;;13.70;8.80;;;;;;;;;;5089957;28;20111;-50
2023/10/07 07:46:46;;;;;;;12.65;7.75;;;;;;;;;;5089831;28;20534;-50
2023/10/07 07:49:12;;;;;;;13.93;8.40;;;;;;;;;;5089802;28;20100;-53
2023/10/07 07:51:40;;;;;;;12.93;8.18;;;;;;;;;;5089245;28;20028;-49
2023/10/07 07:54:09;;;;;;;11.95;7.05;;;;;;;;;;5089802;28;20028;-57
2023/10/07 07:56:35;;;;;;;13.07;7.82;;;;;;;;;;5089997;28;20027;-56
2023/10/07 07:59:14;;;;;;;32.47;8.27;;;;;;;;;;5089796;28;20020;-53
2023/10/07 08:01:44;;;;;;;12.07;7.38;;;;;;;;;;5089323;28;20616;-55
2023/10/07 08:04:16;;;;;;;12.18;7.65;;;;;;;;;;5089322;28;20513;-57
2023/10/07 08:06:42;;;;;;;13.93;8.80;;;;;;;;;;5089662;28;20024;-51
2023/10/07 08:09:10;;;;;;;15.77;8.65;;;;;;;;;;5089791;28;20020;-51
2023/10/07 08:11:36;;;;;;;12.23;7.20;;;;;;;;;;5089386;28;20570;-49
2023/10/07 08:14:09;;;;;;;11.70;7.20;;;;;;;;;;5071722;28;20063;-50
2023/10/07 08:16:50;;;;;;;11.82;7.50;;;;;;;;;;5089143;28;20032;-54
2023/10/07 08:19:20;;;;;;;13.50;8.55;;;;;;;;;;5071001;28;20020;-57
2023/10/07 08:21:51;;;;;;;12.43;7.47;;;;;;;;;;5089108;28;20107;-56
2023/10/07 08:24:17;;;;;;;23.77;8.30;;;;;;;;;;5089450;28;20052;-54
2023/10/07 08:26:48;;;;;;;14.65;8.20;;;;;;;;;;5089443;28;20561;-57
2023/10/07 08:29:31;;;;;;;12.43;7.95;;;;;;;;;;5089004;28;20040;-55
2023/10/07 08:31:57;;;;;;;14.30;7.93;;;;;;;;;;5089169;28;20029;-56
2023/10/07 08:34:32;;;;;;;12.65;7.60;;;;;;;;;;5089317;28;20434;-55
2023/10/07 08:37:01;;;;;;;11.93;7.28;;;;;;;;;;5089696;28;20539;-59
2023/10/07 08:39:28;;;;;;;12.45;7.60;;;;;;;;;;5071205;28;20156;-57
2023/10/07 08:41:58;;;;;;;13.50;8.32;;;;;;;;;;5089228;28;20551;-54
2023/10/07 08:44:31;;;;;;;13.63;8.70;;;;;;;;;;5071361;28;20020;-57
2023/10/07 08:47:04;;;;;;;15.48;8.52;;;;;;;;;;5089885;28;20020;-59
2023/10/07 08:49:33;;;;;;;12.40;7.55;;;;;;;;;;5090796;28;20024;-54
2023/10/07 08:51:59;;;;;;;14.38;8.25;;;;;;;;;;5093049;28;20028;-56
2023/10/07 08:54:37;;;;;;;12.77;7.95;;;;;;;;;;5093190;28;20111;-56
2023/10/07 08:57:15;;;;;;;13.48;8.07;;;;;;;;;;5092934;28;20046;-56
2023/10/07 08:59:43;;;;;;;12.10;7.00;;;;;;;;;;5093178;28;20541;-55
2023/10/07 09:02:26;;;;;;;43.17;8.35;;;;;;;;;;5093009;28;20136;-54
2023/10/07 09:04:52;;;;;;;14.52;8.40;;;;;;;;;;5092938;28;20114;-55
2023/10/07 09:07:20;;;;;;;13.98;7.63;;;;;;;;;;5093363;28;20126;-57
2023/10/07 09:09:47;;;;;;;12.85;7.50;;;;;;;;;;5092680;28;20026;-55
2023/10/07 09:12:18;;;;;;;12.88;8.02;;;;;;;;;;5092547;28;20117;-55
2023/10/07 09:14:51;;;;;;;12.13;7.25;;;;;;;;;;5092859;28;20027;-58
2023/10/07 09:17:20;;;;;;;12.60;7.53;;;;;;;;;;5092908;28;20319;-57
2023/10/07 09:19:52;;;;;;;12.35;7.32;;;;;;;;;;5092505;28;20093;-54
2023/10/07 09:22:24;;;;;;;12.45;7.68;;;;;;;;;;5092483;28;20514;-56
2023/10/07 09:24:54;;;;;;;28.30;10.65;;;;;;;;;;5092533;28;20075;-54
2023/10/07 09:27:36;;;;;;;13.30;8.25;;;;;;;;;;5092777;28;20027;-54
2023/10/07 09:30:14;;;;;;;13.02;7.82;;;;;;;;;;5092641;28;20024;-58
2023/10/07 09:32:44;;;;;;;13.30;8.15;;;;;;;;;;5092561;28;20016;-56
2023/10/07 09:35:19;;;;;;;12.60;7.60;;;;;;;;;;5074687;28;20016;-55
2023/10/07 09:37:46;;;;;;;14.10;8.43;;;;;;;;;;5092440;28;20107;-56
2023/10/07 09:40:53;;;;;;;13.45;8.35;;;;;;;;;;5091798;28;20185;-58
2023/10/07 09:43:07;;;;;;;13.63;8.18;;;;;;;;;;5092157;28;20182;-50
2023/10/07 09:45:34;;;;;;;12.85;7.72;;;;;;;;;;5092059;28;20024;-55
2023/10/07 09:48:05;;;;;;;12.75;7.45;;;;;;;;;;5092178;28;20078;-55
2023/10/07 09:50:34;;;;;;;12.70;7.43;;;;;;;;;;5091318;28;20062;-58
2023/10/07 09:53:30;;;;;;;13.15;8.00;;;;;;;;;;5092185;28;20016;-57
2023/10/07 09:55:56;;;;;;;12.95;7.75;;;;;;;;;;5073749;28;20024;-55
2023/10/07 09:58:26;;;;;;;13.50;8.30;;;;;;;;;;5092451;28;20025;-56
2023/10/07 10:01:06;;;;;;;13.55;8.02;;;;;;;;;;5090464;28;20024;-55
2023/10/07 10:03:45;;;;;;;13.25;7.80;;;;;;;;;;5091962;28;20021;-60
2023/10/07 10:06:25;;;;;;;13.15;7.82;;;;;;;;;;5091886;28;20099;-56
2023/10/07 10:08:56;;;;;;;12.98;7.57;;;;;;;;;;5091886;28;20028;-57
2023/10/07 10:11:44;;;;;;;14.25;8.80;;;;;;;;;;5091521;28;20335;-56
2023/10/07 10:16:48;;;;;;;13.50;8.40;;;;;;;;;;5092034;28;20115;-57
2023/10/07 10:19:25;;;;;;;13.57;8.63;;;;;;;;;;5092025;28;20024;-54
2023/10/07 10:21:51;;;;;;;13.90;8.55;;;;;;;;;;5091367;28;20042;-56
2023/10/07 10:24:18;;;;;;;14.65;8.82;;;;;;;;;;5091178;28;20030;-60
2023/10/07 10:26:44;;;;;;;15.25;9.02;;;;;;;;;;5091134;28;20057;-54
2023/10/07 10:29:17;;;;;;;14.75;9.77;;;;;;;;;;5091296;28;20030;-58
2023/10/07 10:31:58;;;;;;;13.80;8.40;;;;;;;;;;5072687;28;20235;-59
2023/10/07 10:34:26;;;;;;;13.52;8.40;;;;;;;;;;5091256;28;20028;-56
2023/10/07 10:36:55;;;;;;;13.80;8.70;;;;;;;;;;5073195;28;20107;-59
2023/10/07 10:39:25;;;;;;;14.45;9.32;;;;;;;;;;5073044;28;20167;-57
2023/10/07 10:41:53;;;;;;;13.80;8.82;;;;;;;;;;5073076;28;20023;-58
2023/10/07 10:44:20;;;;;;;13.63;8.60;;;;;;;;;;5091287;28;20547;-61
2023/10/07 10:46:46;;;;;;;14.52;9.98;;;;;;;;;;5091376;28;20089;-60
2023/10/07 10:49:14;;;;;;;13.60;8.70;;;;;;;;;;5072741;28;20034;-60
2023/10/07 10:51:45;;;;;;;13.80;8.88;;;;;;;;;;5090810;28;20054;-57
2023/10/07 10:54:13;;;;;;;16.83;9.55;;;;;;;;;;5091181;28;20440;-59
2023/10/07 10:56:55;;;;;;;13.55;8.70;;;;;;;;;;5072568;28;20020;-58
2023/10/07 10:59:22;;;;;;;13.60;8.70;;;;;;;;;;5090652;28;20500;-56
2023/10/07 11:01:52;;;;;;;14.05;8.90;;;;;;;;;;5071831;28;20028;-57
2023/10/07 11:04:21;;;;;;;13.65;8.85;;;;;;;;;;5090936;28;20427;-57
2023/10/07 11:06:51;;;;;;;13.68;8.93;;;;;;;;;;5090871;28;20027;-54
2023/10/07 11:09:18;;;;;;;15.15;10.38;;;;;;;;;;5090608;28;20058;-56
2023/10/07 11:11:48;;;;;;;13.82;9.32;;;;;;;;;;5071606;28;20024;-56
2023/10/07 11:14:20;;;;;;;14.18;9.80;;;;;;;;;;5090428;28;20496;-58
2023/10/07 11:16:46;;;;;;;14.18;9.65;;;;;;;;;;5091229;28;20046;-56
2023/10/07 11:19:13;;;;;;;14.10;9.60;;;;;;;;;;5090844;28;20107;-59
2023/10/07 11:21:45;;;;;;;14.20;9.52;;;;;;;;;;5072045;28;20458;-58
2023/10/07 11:24:14;;;;;;;13.75;9.15;;;;;;;;;;5090600;28;20095;-55
2023/10/07 11:26:42;;;;;;;13.70;9.00;;;;;;;;;;5090591;28;20028;-54
2023/10/07 11:29:08;;;;;;;;;;;;;;;;;;5091097;28;20044;-56
2023/10/07 11:31:34;;;;;;;13.88;9.43;;;;;;;;;;5089909;28;20411;-55
2023/10/07 11:34:01;;;;;;;13.63;8.90;;;;;;;;;;5090269;28;20091;-52
2023/10/07 11:36:27;;;;;;;13.68;8.80;;;;;;;;;;5090195;28;20449;-57
2023/10/07 11:38:53;;;;;;;14.18;9.48;;;;;;;;;;5090293;28;20060;-52
2023/10/07 11:41:19;;;;;;;16.00;9.30;;;;;;;;;;5089258;28;20604;-56
2023/10/07 11:43:49;;;;;;;13.90;9.30;;;;;;;;;;5071893;28;20035;-54
2023/10/07 11:46:15;;;;;;;14.00;9.57;;;;;;;;;;5089917;28;20054;-56
2023/10/07 11:48:42;;;;;;;14.20;9.43;;;;;;;;;;5090030;28;20024;-55
2023/10/07 11:51:10;;;;;;;13.65;8.73;;;;;;;;;;5076272;28;20028;-55
2023/10/07 11:53:37;;;;;;;13.60;8.77;;;;;;;;;;5071038;28;20021;-57
2023/10/07 11:56:11;;;;;;;13.70;8.90;;;;;;;;;;5076682;28;20069;-57
2023/10/07 11:58:37;;;;;;;13.73;9.00;;;;;;;;;;5083642;28;20008;-55
2023/10/07 12:01:03;;;;;;;15.73;10.88;;;;;;;;;;5090819;28;20104;-54
2023/10/07 12:03:30;;;;;;;13.90;9.60;;;;;;;;;;5091724;28;20433;-56
2023/10/07 12:05:58;;;;;;;13.80;9.35;;;;;;;;;;5084334;28;20021;-56
2023/10/07 12:08:25;;;;;;;13.80;9.23;;;;;;;;;;5068763;28;20020;-56
2023/10/07 12:10:51;;;;;;;13.80;9.20;;;;;;;;;;5075798;28;20040;-56
2023/10/07 12:13:19;;;;;;;13.90;9.30;;;;;;;;;;5069857;28;20072;-57
2023/10/07 12:15:45;;;;;;;18.50;9.80;;;;;;;;;;5069957;28;20043;-57
2023/10/07 12:18:13;;;;;;;13.73;9.10;;;;;;;;;;5070535;28;20056;-55
2023/10/07 12:20:45;;;;;;;14.52;9.20;;;;;;;;;;5069170;28;20094;-59
2023/10/07 12:23:11;;;;;;;14.00;9.20;;;;;;;;;;5069525;28;20028;-57
2023/10/07 12:25:37;;;;;;;13.57;8.60;;;;;;;;;;5075056;28;20032;-55
2023/10/07 12:28:05;;;;;;;13.70;9.02;;;;;;;;;;5094186;28;20109;-59
2023/10/07 12:30:34;;;;;;;14.55;9.73;;;;;;;;;;5092701;28;20048;-60
2023/10/07 12:33:00;;;;;;;14.30;10.13;;;;;;;;;;5075129;28;20017;-59
2023/10/07 12:35:30;;;;;;;13.85;9.50;;;;;;;;;;5092731;28;20032;-58
2023/10/07 12:37:58;;;;;;;13.70;8.90;;;;;;;;;;5093534;28;20446;-59
2023/10/07 12:40:24;;;;;;;14.30;9.83;;;;;;;;;;5080291;28;20390;-57
2023/10/07 12:42:52;;;;;;;14.38;9.63;;;;;;;;;;5072755;28;20043;-60
2023/10/07 12:45:19;;;;;;;14.25;9.75;;;;;;;;;;5072981;28;20027;-54
2023/10/07 12:47:45;;;;;;;14.27;9.30;;;;;;;;;;5073164;28;20028;-59
2023/10/07 12:50:28;;;;;;;13.70;8.98;;;;;;;;;;5072366;28;20386;-59
2023/10/07 12:52:55;;;;;;;13.80;9.30;;;;;;;;;;5089015;28;20032;-58
2023/10/07 12:55:21;;;;;;;13.88;9.20;;;;;;;;;;5091524;28;20024;-55
2023/10/07 12:57:50;;;;;;;14.93;10.35;;;;;;;;;;4724074;28;10000640;-56
2023/10/07 13:00:20;;;;;;;14.90;9.48;;;;;;;;;;5068491;28;20162;-58
2023/10/07 13:02:47;;;;;;;15.65;10.05;;;;;;;;;;5084826;28;20031;-57
2023/10/07 13:05:18;;;;;;;16.95;9.93;;;;;;;;;;5082571;28;20116;-59
2023/10/07 13:07:48;;;;;;;14.10;9.75;;;;;;;;;;5068817;28;20027;-56
2023/10/07 13:10:15;;;;;;;14.20;9.88;;;;;;;;;;5086337;28;20032;-59
2023/10/07 13:12:41;;;;;;;21.77;10.63;;;;;;;;;;5081714;28;20044;-59
2023/10/07 13:15:18;;;;;;;14.77;10.48;;;;;;;;;;5078164;28;20383;-56
2023/10/07 13:17:48;;;;;;;13.93;9.68;;;;;;;;;;5077448;28;20029;-56
2023/10/07 13:20:20;;;;;;;13.95;9.60;;;;;;;;;;5083844;28;20142;-60
2023/10/07 13:22:46;;;;;;;21.67;11.02;;;;;;;;;;5080723;28;20035;-59
2023/10/07 13:25:13;;;;;;;14.07;9.82;;;;;;;;;;5088313;28;20103;-59
2023/10/07 13:27:39;;;;;;;20.08;10.40;;;;;;;;;;5069933;28;20025;-58
2023/10/07 13:30:11;;;;;;;14.10;10.00;;;;;;;;;;5068654;28;20120;-55
2023/10/07 13:32:40;;;;;;;14.25;9.85;;;;;;;;;;5069835;28;20555;-56
2023/10/07 13:35:08;;;;;;;14.10;9.77;;;;;;;;;;5088696;28;20016;-55
2023/10/07 13:37:34;;;;;;;14.85;10.25;;;;;;;;;;5088351;28;20056;-58
2023/10/07 13:40:07;;;;;;;14.00;9.82;;;;;;;;;;5080689;28;20451;-59
2023/10/07 13:42:33;;;;;;;13.88;9.38;;;;;;;;;;5084539;28;20032;-57
2023/10/07 13:45:07;;;;;;;13.77;9.20;;;;;;;;;;5049935;28;20447;-58
2023/10/07 13:47:33;;;;;;;14.10;9.73;;;;;;;;;;5068607;28;20528;-57
2023/10/07 13:49:59;;;;;;;15.40;9.70;;;;;;;;;;5087614;28;20044;-59
2023/10/07 13:52:29;;;;;;;14.00;9.90;;;;;;;;;;5089871;28;20141;-58
2023/10/07 13:55:22;;;;;;;14.60;11.10;;;;;;;;;;5090509;28;20024;-58
2023/10/07 13:57:48;;;;;;;14.90;10.70;;;;;;;;;;5076453;28;20094;-58
2023/10/07 14:02:59;;;;;;;16.20;10.07;;;;;;;;;;4720760;28;10000797;-57
2023/10/07 14:05:25;;;;;;;16.23;10.73;;;;;;;;;;5065729;28;20091;-59
2023/10/07 14:07:54;;;;;;;17.08;10.15;;;;;;;;;;5052702;28;20668;-58
2023/10/07 14:10:23;;;;;;;13.80;9.32;;;;;;;;;;5072815;28;20460;-58
2023/10/07 14:12:53;;;;;;;15.15;10.20;;;;;;;;;;5071148;28;20012;-56
2023/10/07 14:15:22;;;;;;;14.50;10.13;;;;;;;;;;5088134;28;20113;-54
2023/10/07 14:17:48;;;;;;;13.90;9.57;;;;;;;;;;5086758;28;20073;-57
2023/10/07 14:20:15;;;;;;;14.10;10.10;;;;;;;;;;5090932;28;20513;-57
2023/10/07 14:22:41;;;;;;;14.73;10.63;;;;;;;;;;5090345;28;20034;-58
2023/10/07 14:25:07;;;;;;;14.10;10.10;;;;;;;;;;5091296;28;20140;-56
2023/10/07 14:27:36;;;;;;;14.10;10.05;;;;;;;;;;5071618;28;20039;-59
2023/10/07 14:30:02;;;;;;;15.15;10.10;;;;;;;;;;5070471;28;20028;-59
2023/10/07 14:32:28;;;;;;;16.70;10.65;;;;;;;;;;5070278;28;20020;-58
2023/10/07 14:34:55;;;;;;;14.20;10.15;;;;;;;;;;5076295;28;20030;-59
2023/10/07 14:37:24;;;;;;;14.80;11.00;;;;;;;;;;5091099;28;20078;-61
2023/10/07 14:39:51;;;;;;;14.55;10.75;;;;;;;;;;5089769;28;20047;-56
2023/10/07 14:42:20;;;;;;;14.20;10.30;;;;;;;;;;5090404;28;20020;-60
2023/10/07 14:44:47;;;;;;;15.20;11.15;;;;;;;;;;5070801;28;20101;-57
2023/10/07 14:47:14;;;;;;;14.40;10.55;;;;;;;;;;5086653;28;20032;-59
2023/10/07 14:49:40;;;;;;;14.13;10.40;;;;;;;;;;5088103;28;20028;-59
2023/10/07 14:52:06;;;;;;;14.40;10.00;;;;;;;;;;4717618;28;9999859;-54
2023/10/07 14:54:33;;;;;;;14.10;10.00;;;;;;;;;;5067238;28;20107;-55
2023/10/07 14:56:59;;;;;;;13.93;9.57;;;;;;;;;;5078090;28;20019;-58
2023/10/07 14:59:25;;;;;;;13.80;9.35;;;;;;;;;;5069129;28;20068;-59
2023/10/07 15:01:51;;;;;;;14.10;10.00;;;;;;;;;;5049037;28;20108;-57
2023/10/07 15:04:17;;;;;;;15.82;10.18;;;;;;;;;;5086669;28;20644;-56
2023/10/07 15:06:43;;;;;;;14.40;10.10;;;;;;;;;;5061241;28;20551;-59
2023/10/07 15:09:11;;;;;;;15.77;10.05;;;;;;;;;;5052368;28;20038;-56
2023/10/07 15:11:38;;;;;;;14.20;10.00;;;;;;;;;;5085273;28;20035;-57
2023/10/07 15:14:04;;;;;;;14.10;10.25;;;;;;;;;;5086896;28;20408;-55